sensor_id;sensor_type;location;lat;lon;timestamp;P1;durP1;ratioP1;P2;durP2;ratioP2
13090;SDS011;6611;52.604;13.438;2023-12-20T00:00:06;5.50;;;4.63;;
13090;SDS011;6611;52.604;13.438;2023-12-20T00:05:10;5.73;;;4.70;;
13090;SDS011;6611;52.604;13.438;2023-12-20T00:10:12;6.87;;;4.87;;
13090;SDS011;6611;52.604;13.438;2023-12-20T00:15:13;6.43;;;4.57;;
13090;SDS011;6611;52.604;13.438;2023-12-20T00:20:16;5.67;;;4.97;;
13090;SDS011;6611;52.604;13.438;2023-12-20T00:25:19;4.90;;;4.17;;
13090;SDS011;6611;52.604;13.438;2023-12-20T00:30:20;5.07;;;4.27;;
13090;SDS011;6611;52.604;13.438;2023-12-20T00:35:23;4.90;;;4.17;;
13090;SDS011;6611;52.604;13.438;2023-12-20T00:40:26;4.60;;;3.90;;
13090;SDS011;6611;52.604;13.438;2023-12-20T00:45:28;5.10;;;4.10;;
13090;SDS011;6611;52.604;13.438;2023-12-20T00:50:31;3.50;;;3.20;;
13090;SDS011;6611;52.604;13.438;2023-12-20T00:55:32;3.97;;;3.40;;
13090;SDS011;6611;52.604;13.438;2023-12-20T01:00:34;4.33;;;3.87;;
13090;SDS011;6611;52.604;13.438;2023-12-20T01:05:37;4.03;;;3.60;;
13090;SDS011;6611;52.604;13.438;2023-12-20T01:10:38;4.77;;;3.80;;
13090;SDS011;6611;52.604;13.438;2023-12-20T01:15:40;4.73;;;4.03;;
13090;SDS011;6611;52.604;13.438;2023-12-20T01:20:44;5.03;;;4.17;;
13090;SDS011;6611;52.604;13.438;2023-12-20T01:25:46;5.50;;;4.40;;
13090;SDS011;6611;52.604;13.438;2023-12-20T01:30:48;4.67;;;4.17;;
13090;SDS011;6611;52.604;13.438;2023-12-20T01:35:51;4.30;;;3.53;;
13090;SDS011;6611;52.604;13.438;2023-12-20T01:40:52;4.97;;;4.00;;
13090;SDS011;6611;52.604;13.438;2023-12-20T01:45:54;4.40;;;4.00;;
13090;SDS011;6611;52.604;13.438;2023-12-20T01:50:58;3.53;;;3.03;;
13090;SDS011;6611;52.604;13.438;2023-12-20T01:56:00;3.70;;;2.90;;
13090;SDS011;6611;52.604;13.438;2023-12-20T02:01:02;4.40;;;3.07;;
13090;SDS011;6611;52.604;13.438;2023-12-20T02:06:05;4.73;;;3.33;;
13090;SDS011;6611;52.604;13.438;2023-12-20T02:11:08;3.73;;;3.03;;
13090;SDS011;6611;52.604;13.438;2023-12-20T02:16:10;4.47;;;3.70;;
13090;SDS011;6611;52.604;13.438;2023-12-20T02:21:13;4.10;;;3.40;;
13090;SDS011;6611;52.604;13.438;2023-12-20T02:26:17;3.37;;;2.63;;
13090;SDS011;6611;52.604;13.438;2023-12-20T02:31:20;4.77;;;2.53;;
13090;SDS011;6611;52.604;13.438;2023-12-20T02:36:22;2.57;;;1.90;;
13090;SDS011;6611;52.604;13.438;2023-12-20T02:41:25;2.90;;;2.00;;
13090;SDS011;6611;52.604;13.438;2023-12-20T02:46:27;2.83;;;1.50;;
13090;SDS011;6611;52.604;13.438;2023-12-20T02:51:28;3.00;;;1.40;;
13090;SDS011;6611;52.604;13.438;2023-12-20T02:56:31;2.10;;;1.50;;
13090;SDS011;6611;52.604;13.438;2023-12-20T03:01:33;1.87;;;1.50;;
13090;SDS011;6611;52.604;13.438;2023-12-20T03:06:35;5.40;;;1.40;;
13090;SDS011;6611;52.604;13.438;2023-12-20T03:11:38;3.37;;;1.20;;
13090;SDS011;6611;52.604;13.438;2023-12-20T03:16:40;1.53;;;0.97;;
13090;SDS011;6611;52.604;13.438;2023-12-20T03:21:41;2.67;;;1.20;;
13090;SDS011;6611;52.604;13.438;2023-12-20T03:26:44;1.83;;;1.10;;
13090;SDS011;6611;52.604;13.438;2023-12-20T03:31:46;2.30;;;1.30;;
13090;SDS011;6611;52.604;13.438;2023-12-20T03:36:48;3.87;;;1.20;;
13090;SDS011;6611;52.604;13.438;2023-12-20T03:41:51;1.87;;;1.20;;
13090;SDS011;6611;52.604;13.438;2023-12-20T03:46:52;2.90;;;1.47;;
13090;SDS011;6611;52.604;13.438;2023-12-20T03:51:54;4.70;;;1.37;;
13090;SDS011;6611;52.604;13.438;2023-12-20T03:56:57;5.00;;;1.50;;
13090;SDS011;6611;52.604;13.438;2023-12-20T04:01:58;5.70;;;1.40;;
13090;SDS011;6611;52.604;13.438;2023-12-20T04:07:00;2.63;;;1.43;;
13090;SDS011;6611;52.604;13.438;2023-12-20T04:12:03;3.33;;;1.73;;
13090;SDS011;6611;52.604;13.438;2023-12-20T04:17:05;7.27;;;1.70;;
13090;SDS011;6611;52.604;13.438;2023-12-20T04:22:07;3.70;;;1.80;;
13090;SDS011;6611;52.604;13.438;2023-12-20T04:27:10;5.60;;;1.60;;
13090;SDS011;6611;52.604;13.438;2023-12-20T04:32:12;3.70;;;1.37;;
13090;SDS011;6611;52.604;13.438;2023-12-20T04:37:14;5.90;;;1.37;;
13090;SDS011;6611;52.604;13.438;2023-12-20T04:42:17;3.07;;;1.67;;
13090;SDS011;6611;52.604;13.438;2023-12-20T04:47:18;3.17;;;1.77;;
13090;SDS011;6611;52.604;13.438;2023-12-20T04:52:20;2.60;;;1.40;;
13090;SDS011;6611;52.604;13.438;2023-12-20T04:57:23;4.37;;;1.47;;
13090;SDS011;6611;52.604;13.438;2023-12-20T05:02:25;3.60;;;1.20;;
13090;SDS011;6611;52.604;13.438;2023-12-20T05:07:26;4.97;;;1.57;;
13090;SDS011;6611;52.604;13.438;2023-12-20T05:12:29;6.87;;;1.40;;
13090;SDS011;6611;52.604;13.438;2023-12-20T05:17:31;4.33;;;2.00;;
13090;SDS011;6611;52.604;13.438;2023-12-20T05:22:33;5.53;;;1.60;;
13090;SDS011;6611;52.604;13.438;2023-12-20T05:27:36;4.40;;;1.93;;
13090;SDS011;6611;52.604;13.438;2023-12-20T05:32:37;6.03;;;1.47;;
13090;SDS011;6611;52.604;13.438;2023-12-20T05:37:39;4.43;;;1.83;;
13090;SDS011;6611;52.604;13.438;2023-12-20T05:42:42;3.80;;;1.80;;
13090;SDS011;6611;52.604;13.438;2023-12-20T05:47:44;1.93;;;1.50;;
13090;SDS011;6611;52.604;13.438;2023-12-20T05:52:45;5.70;;;1.70;;
13090;SDS011;6611;52.604;13.438;2023-12-20T05:57:48;11.60;;;2.10;;
13090;SDS011;6611;52.604;13.438;2023-12-20T06:02:50;2.93;;;1.67;;
13090;SDS011;6611;52.604;13.438;2023-12-20T06:07:52;8.30;;;2.23;;
13090;SDS011;6611;52.604;13.438;2023-12-20T06:12:56;6.30;;;1.90;;
13090;SDS011;6611;52.604;13.438;2023-12-20T06:17:59;3.43;;;1.70;;
13090;SDS011;6611;52.604;13.438;2023-12-20T06:23:00;4.93;;;1.70;;
13090;SDS011;6611;52.604;13.438;2023-12-20T06:28:03;5.27;;;1.53;;
13090;SDS011;6611;52.604;13.438;2023-12-20T06:33:06;6.07;;;1.43;;
13090;SDS011;6611;52.604;13.438;2023-12-20T06:38:09;5.73;;;1.50;;
13090;SDS011;6611;52.604;13.438;2023-12-20T06:43:13;5.07;;;1.77;;
13090;SDS011;6611;52.604;13.438;2023-12-20T06:48:14;10.23;;;2.23;;
13090;SDS011;6611;52.604;13.438;2023-12-20T06:53:16;6.40;;;1.93;;
13090;SDS011;6611;52.604;13.438;2023-12-20T06:58:19;5.63;;;1.93;;
13090;SDS011;6611;52.604;13.438;2023-12-20T07:03:20;5.03;;;1.90;;
13090;SDS011;6611;52.604;13.438;2023-12-20T07:08:22;6.23;;;1.77;;
13090;SDS011;6611;52.604;13.438;2023-12-20T07:13:25;5.83;;;1.70;;
13090;SDS011;6611;52.604;13.438;2023-12-20T07:18:27;3.93;;;1.67;;
13090;SDS011;6611;52.604;13.438;2023-12-20T07:23:29;5.93;;;2.27;;
13090;SDS011;6611;52.604;13.438;2023-12-20T07:28:32;3.77;;;1.87;;
13090;SDS011;6611;52.604;13.438;2023-12-20T07:33:33;8.10;;;1.80;;
13090;SDS011;6611;52.604;13.438;2023-12-20T07:38:35;5.57;;;2.20;;
13090;SDS011;6611;52.604;13.438;2023-12-20T07:43:38;6.37;;;2.23;;
13090;SDS011;6611;52.604;13.438;2023-12-20T07:48:40;5.37;;;1.93;;
13090;SDS011;6611;52.604;13.438;2023-12-20T07:53:42;6.80;;;2.10;;
13090;SDS011;6611;52.604;13.438;2023-12-20T07:58:45;3.87;;;1.87;;
13090;SDS011;6611;52.604;13.438;2023-12-20T08:03:48;6.47;;;1.90;;
13090;SDS011;6611;52.604;13.438;2023-12-20T08:08:50;6.00;;;1.50;;
13090;SDS011;6611;52.604;13.438;2023-12-20T08:13:53;5.83;;;1.67;;
13090;SDS011;6611;52.604;13.438;2023-12-20T08:18:54;6.07;;;1.90;;
13090;SDS011;6611;52.604;13.438;2023-12-20T08:23:56;5.10;;;1.77;;
13090;SDS011;6611;52.604;13.438;2023-12-20T08:28:59;5.27;;;1.83;;
13090;SDS011;6611;52.604;13.438;2023-12-20T08:34:01;5.67;;;1.80;;
13090;SDS011;6611;52.604;13.438;2023-12-20T08:39:02;4.57;;;1.63;;
13090;SDS011;6611;52.604;13.438;2023-12-20T08:44:08;5.50;;;1.50;;
13090;SDS011;6611;52.604;13.438;2023-12-20T08:49:10;6.17;;;1.97;;
13090;SDS011;6611;52.604;13.438;2023-12-20T08:54:12;7.77;;;2.13;;
13090;SDS011;6611;52.604;13.438;2023-12-20T08:59:15;5.77;;;1.90;;
13090;SDS011;6611;52.604;13.438;2023-12-20T09:04:18;3.97;;;1.47;;
13090;SDS011;6611;52.604;13.438;2023-12-20T09:09:20;5.73;;;1.80;;
13090;SDS011;6611;52.604;13.438;2023-12-20T09:14:23;6.87;;;1.97;;
13090;SDS011;6611;52.604;13.438;2023-12-20T09:19:25;6.87;;;1.77;;
13090;SDS011;6611;52.604;13.438;2023-12-20T09:24:26;3.93;;;1.60;;
13090;SDS011;6611;52.604;13.438;2023-12-20T09:29:29;9.10;;;2.00;;
13090;SDS011;6611;52.604;13.438;2023-12-20T09:34:31;7.50;;;1.90;;
13090;SDS011;6611;52.604;13.438;2023-12-20T09:39:32;5.40;;;1.90;;
13090;SDS011;6611;52.604;13.438;2023-12-20T09:44:35;5.90;;;1.87;;
13090;SDS011;6611;52.604;13.438;2023-12-20T09:49:41;6.97;;;2.27;;
13090;SDS011;6611;52.604;13.438;2023-12-20T09:54:45;8.53;;;1.93;;
13090;SDS011;6611;52.604;13.438;2023-12-20T09:59:52;5.80;;;1.43;;
13090;SDS011;6611;52.604;13.438;2023-12-20T10:04:54;7.47;;;2.27;;
13090;SDS011;6611;52.604;13.438;2023-12-20T10:09:55;6.30;;;1.70;;
13090;SDS011;6611;52.604;13.438;2023-12-20T10:14:59;5.77;;;1.80;;
13090;SDS011;6611;52.604;13.438;2023-12-20T10:20:01;4.83;;;1.73;;
13090;SDS011;6611;52.604;13.438;2023-12-20T10:25:03;7.63;;;1.80;;
13090;SDS011;6611;52.604;13.438;2023-12-20T10:30:07;6.30;;;1.93;;
13090;SDS011;6611;52.604;13.438;2023-12-20T10:35:09;6.03;;;1.77;;
13090;SDS011;6611;52.604;13.438;2023-12-20T10:40:11;6.17;;;1.77;;
13090;SDS011;6611;52.604;13.438;2023-12-20T10:45:15;9.43;;;1.90;;
13090;SDS011;6611;52.604;13.438;2023-12-20T10:50:18;8.60;;;1.90;;
13090;SDS011;6611;52.604;13.438;2023-12-20T10:55:20;5.13;;;2.00;;
13090;SDS011;6611;52.604;13.438;2023-12-20T11:00:23;3.70;;;1.50;;
13090;SDS011;6611;52.604;13.438;2023-12-20T11:05:28;8.00;;;2.80;;
13090;SDS011;6611;52.604;13.438;2023-12-20T11:10:38;7.07;;;1.73;;
13090;SDS011;6611;52.604;13.438;2023-12-20T11:15:46;10.23;;;2.37;;
13090;SDS011;6611;52.604;13.438;2023-12-20T11:20:49;8.83;;;1.90;;
13090;SDS011;6611;52.604;13.438;2023-12-20T11:25:52;6.57;;;1.93;;
13090;SDS011;6611;52.604;13.438;2023-12-20T11:30:56;6.07;;;2.17;;
13090;SDS011;6611;52.604;13.438;2023-12-20T11:35:59;4.83;;;1.87;;
13090;SDS011;6611;52.604;13.438;2023-12-20T11:41:05;9.03;;;2.63;;
13090;SDS011;6611;52.604;13.438;2023-12-20T11:46:08;5.40;;;1.70;;
13090;SDS011;6611;52.604;13.438;2023-12-20T11:51:10;4.57;;;2.07;;
13090;SDS011;6611;52.604;13.438;2023-12-20T11:56:13;3.97;;;1.60;;
13090;SDS011;6611;52.604;13.438;2023-12-20T12:01:16;5.20;;;1.97;;
13090;SDS011;6611;52.604;13.438;2023-12-20T12:06:17;7.27;;;2.13;;
13090;SDS011;6611;52.604;13.438;2023-12-20T12:11:19;9.17;;;2.03;;
13090;SDS011;6611;52.604;13.438;2023-12-20T12:16:22;7.50;;;1.50;;
13090;SDS011;6611;52.604;13.438;2023-12-20T12:21:24;5.63;;;1.77;;
13090;SDS011;6611;52.604;13.438;2023-12-20T12:26:26;5.37;;;1.73;;
13090;SDS011;6611;52.604;13.438;2023-12-20T12:31:32;6.63;;;1.93;;
13090;SDS011;6611;52.604;13.438;2023-12-20T12:36:34;3.67;;;1.70;;
13090;SDS011;6611;52.604;13.438;2023-12-20T12:41:36;5.83;;;2.33;;
13090;SDS011;6611;52.604;13.438;2023-12-20T12:46:39;3.90;;;1.87;;
13090;SDS011;6611;52.604;13.438;2023-12-20T12:51:40;5.13;;;2.67;;
13090;SDS011;6611;52.604;13.438;2023-12-20T12:56:43;8.07;;;2.37;;
13090;SDS011;6611;52.604;13.438;2023-12-20T13:01:46;7.17;;;2.20;;
13090;SDS011;6611;52.604;13.438;2023-12-20T13:06:48;7.20;;;2.37;;
13090;SDS011;6611;52.604;13.438;2023-12-20T13:11:50;4.40;;;2.17;;
13090;SDS011;6611;52.604;13.438;2023-12-20T13:16:52;2.57;;;2.07;;
13090;SDS011;6611;52.604;13.438;2023-12-20T13:21:54;2.77;;;1.60;;
13090;SDS011;6611;52.604;13.438;2023-12-20T13:26:56;4.03;;;1.90;;
13090;SDS011;6611;52.604;13.438;2023-12-20T13:31:59;4.63;;;1.20;;
13090;SDS011;6611;52.604;13.438;2023-12-20T13:37:01;3.80;;;1.50;;
13090;SDS011;6611;52.604;13.438;2023-12-20T13:42:04;4.80;;;1.23;;
13090;SDS011;6611;52.604;13.438;2023-12-20T13:47:07;2.67;;;0.80;;
13090;SDS011;6611;52.604;13.438;2023-12-20T13:52:09;4.27;;;1.00;;
13090;SDS011;6611;52.604;13.438;2023-12-20T13:57:11;2.80;;;1.10;;
13090;SDS011;6611;52.604;13.438;2023-12-20T14:02:14;1.23;;;0.77;;
13090;SDS011;6611;52.604;13.438;2023-12-20T14:07:16;2.90;;;1.40;;
13090;SDS011;6611;52.604;13.438;2023-12-20T14:12:18;3.03;;;0.97;;
13090;SDS011;6611;52.604;13.438;2023-12-20T14:17:21;2.40;;;0.93;;
13090;SDS011;6611;52.604;13.438;2023-12-20T14:22:23;1.80;;;0.73;;
13090;SDS011;6611;52.604;13.438;2023-12-20T14:27:26;1.53;;;0.50;;
13090;SDS011;6611;52.604;13.438;2023-12-20T14:32:29;1.00;;;0.90;;
13090;SDS011;6611;52.604;13.438;2023-12-20T14:37:30;0.60;;;0.53;;
13090;SDS011;6611;52.604;13.438;2023-12-20T14:42:32;2.83;;;0.77;;
13090;SDS011;6611;52.604;13.438;2023-12-20T14:47:36;1.80;;;0.70;;
13090;SDS011;6611;52.604;13.438;2023-12-20T14:52:38;2.93;;;1.00;;
13090;SDS011;6611;52.604;13.438;2023-12-20T14:57:39;1.57;;;0.70;;
13090;SDS011;6611;52.604;13.438;2023-12-20T15:02:42;1.67;;;0.50;;
13090;SDS011;6611;52.604;13.438;2023-12-20T15:07:44;3.13;;;1.40;;
13090;SDS011;6611;52.604;13.438;2023-12-20T15:12:47;2.23;;;1.07;;
13090;SDS011;6611;52.604;13.438;2023-12-20T15:17:50;2.03;;;0.70;;
13090;SDS011;6611;52.604;13.438;2023-12-20T15:22:51;1.00;;;0.67;;
13090;SDS011;6611;52.604;13.438;2023-12-20T15:27:54;2.10;;;0.70;;
13090;SDS011;6611;52.604;13.438;2023-12-20T15:32:57;1.57;;;0.67;;
13090;SDS011;6611;52.604;13.438;2023-12-20T15:38:00;4.60;;;1.30;;
13090;SDS011;6611;52.604;13.438;2023-12-20T15:43:02;3.60;;;1.00;;
13090;SDS011;6611;52.604;13.438;2023-12-20T15:48:06;7.03;;;1.03;;
13090;SDS011;6611;52.604;13.438;2023-12-20T15:53:09;5.20;;;1.43;;
13090;SDS011;6611;52.604;13.438;2023-12-20T15:58:11;3.43;;;1.00;;
13090;SDS011;6611;52.604;13.438;2023-12-20T16:03:14;5.27;;;1.53;;
13090;SDS011;6611;52.604;13.438;2023-12-20T16:08:16;2.83;;;1.13;;
13090;SDS011;6611;52.604;13.438;2023-12-20T16:13:17;3.53;;;1.10;;
13090;SDS011;6611;52.604;13.438;2023-12-20T16:18:21;5.83;;;1.40;;
13090;SDS011;6611;52.604;13.438;2023-12-20T16:23:23;2.80;;;0.93;;
13090;SDS011;6611;52.604;13.438;2023-12-20T16:28:25;2.93;;;1.30;;
13090;SDS011;6611;52.604;13.438;2023-12-20T16:33:28;3.70;;;1.67;;
13090;SDS011;6611;52.604;13.438;2023-12-20T16:38:30;2.83;;;1.10;;
13090;SDS011;6611;52.604;13.438;2023-12-20T16:43:32;4.70;;;1.40;;
13090;SDS011;6611;52.604;13.438;2023-12-20T16:48:35;4.97;;;1.63;;
13090;SDS011;6611;52.604;13.438;2023-12-20T16:53:36;4.27;;;1.40;;
13090;SDS011;6611;52.604;13.438;2023-12-20T16:58:38;5.13;;;1.33;;
13090;SDS011;6611;52.604;13.438;2023-12-20T17:03:41;6.40;;;1.50;;
13090;SDS011;6611;52.604;13.438;2023-12-20T17:08:42;4.93;;;1.20;;
13090;SDS011;6611;52.604;13.438;2023-12-20T17:13:44;3.17;;;1.33;;
13090;SDS011;6611;52.604;13.438;2023-12-20T17:18:47;4.90;;;1.37;;
13090;SDS011;6611;52.604;13.438;2023-12-20T17:23:49;4.40;;;1.33;;
13090;SDS011;6611;52.604;13.438;2023-12-20T17:28:51;3.57;;;1.47;;
13090;SDS011;6611;52.604;13.438;2023-12-20T17:33:54;4.43;;;1.67;;
13090;SDS011;6611;52.604;13.438;2023-12-20T17:38:55;4.13;;;1.67;;
13090;SDS011;6611;52.604;13.438;2023-12-20T17:43:57;4.60;;;1.70;;
13090;SDS011;6611;52.604;13.438;2023-12-20T17:49:00;3.73;;;1.87;;
13090;SDS011;6611;52.604;13.438;2023-12-20T17:54:02;7.40;;;1.97;;
13090;SDS011;6611;52.604;13.438;2023-12-20T17:59:04;4.93;;;1.40;;
13090;SDS011;6611;52.604;13.438;2023-12-20T18:04:07;6.87;;;1.90;;
13090;SDS011;6611;52.604;13.438;2023-12-20T18:09:09;5.10;;;1.77;;
13090;SDS011;6611;52.604;13.438;2023-12-20T18:14:10;3.27;;;1.53;;
13090;SDS011;6611;52.604;13.438;2023-12-20T18:19:13;7.53;;;2.00;;
13090;SDS011;6611;52.604;13.438;2023-12-20T18:24:17;4.43;;;1.80;;
13090;SDS011;6611;52.604;13.438;2023-12-20T18:29:18;5.07;;;1.83;;
13090;SDS011;6611;52.604;13.438;2023-12-20T18:34:21;5.53;;;1.40;;
13090;SDS011;6611;52.604;13.438;2023-12-20T18:39:24;4.43;;;1.60;;
13090;SDS011;6611;52.604;13.438;2023-12-20T18:44:25;7.53;;;1.30;;
13090;SDS011;6611;52.604;13.438;2023-12-20T18:49:28;6.03;;;1.50;;
13090;SDS011;6611;52.604;13.438;2023-12-20T18:54:30;5.93;;;1.67;;
13090;SDS011;6611;52.604;13.438;2023-12-20T18:59:32;3.87;;;1.63;;
13090;SDS011;6611;52.604;13.438;2023-12-20T19:04:35;7.37;;;1.80;;
13090;SDS011;6611;52.604;13.438;2023-12-20T19:09:36;7.90;;;1.80;;
13090;SDS011;6611;52.604;13.438;2023-12-20T19:14:38;6.87;;;1.33;;
13090;SDS011;6611;52.604;13.438;2023-12-20T19:19:41;9.37;;;1.97;;
13090;SDS011;6611;52.604;13.438;2023-12-20T19:24:43;5.97;;;1.80;;
13090;SDS011;6611;52.604;13.438;2023-12-20T19:29:44;5.47;;;1.70;;
13090;SDS011;6611;52.604;13.438;2023-12-20T19:34:47;4.40;;;1.87;;
13090;SDS011;6611;52.604;13.438;2023-12-20T19:39:50;5.13;;;1.67;;
13090;SDS011;6611;52.604;13.438;2023-12-20T19:44:52;3.63;;;1.60;;
13090;SDS011;6611;52.604;13.438;2023-12-20T19:49:55;2.90;;;1.40;;
13090;SDS011;6611;52.604;13.438;2023-12-20T19:54:56;6.10;;;2.03;;
13090;SDS011;6611;52.604;13.438;2023-12-20T19:59:59;3.93;;;1.40;;
13090;SDS011;6611;52.604;13.438;2023-12-20T20:05:02;7.80;;;2.43;;
13090;SDS011;6611;52.604;13.438;2023-12-20T20:10:07;3.63;;;1.33;;
13090;SDS011;6611;52.604;13.438;2023-12-20T20:15:09;4.37;;;1.63;;
13090;SDS011;6611;52.604;13.438;2023-12-20T20:20:12;3.70;;;1.57;;
13090;SDS011;6611;52.604;13.438;2023-12-20T20:25:14;5.47;;;1.43;;
13090;SDS011;6611;52.604;13.438;2023-12-20T20:30:16;5.83;;;1.70;;
13090;SDS011;6611;52.604;13.438;2023-12-20T20:35:19;5.30;;;1.33;;
13090;SDS011;6611;52.604;13.438;2023-12-20T20:40:21;5.00;;;1.60;;
13090;SDS011;6611;52.604;13.438;2023-12-20T20:45:23;4.93;;;1.50;;
13090;SDS011;6611;52.604;13.438;2023-12-20T20:50:26;5.73;;;1.73;;
13090;SDS011;6611;52.604;13.438;2023-12-20T20:55:28;8.33;;;1.40;;
13090;SDS011;6611;52.604;13.438;2023-12-20T21:00:29;4.93;;;1.30;;
13090;SDS011;6611;52.604;13.438;2023-12-20T21:05:33;3.30;;;1.40;;
13090;SDS011;6611;52.604;13.438;2023-12-20T21:10:35;4.97;;;1.63;;
13090;SDS011;6611;52.604;13.438;2023-12-20T21:15:36;4.27;;;1.37;;
13090;SDS011;6611;52.604;13.438;2023-12-20T21:20:39;3.20;;;1.10;;
13090;SDS011;6611;52.604;13.438;2023-12-20T21:25:41;3.50;;;1.40;;
13090;SDS011;6611;52.604;13.438;2023-12-20T21:30:43;4.97;;;1.10;;
13090;SDS011;6611;52.604;13.438;2023-12-20T21:35:46;1.23;;;1.00;;
13090;SDS011;6611;52.604;13.438;2023-12-20T21:40:48;3.43;;;1.53;;
13090;SDS011;6611;52.604;13.438;2023-12-20T21:45:49;1.97;;;1.20;;
13090;SDS011;6611;52.604;13.438;2023-12-20T21:50:52;2.27;;;1.37;;
13090;SDS011;6611;52.604;13.438;2023-12-20T21:55:54;2.13;;;1.20;;
13090;SDS011;6611;52.604;13.438;2023-12-20T22:00:57;3.53;;;1.33;;
13090;SDS011;6611;52.604;13.438;2023-12-20T22:06:00;1.77;;;1.00;;
13090;SDS011;6611;52.604;13.438;2023-12-20T22:11:01;3.53;;;1.27;;
13090;SDS011;6611;52.604;13.438;2023-12-20T22:16:03;3.17;;;1.13;;
13090;SDS011;6611;52.604;13.438;2023-12-20T22:21:08;3.63;;;1.40;;
13090;SDS011;6611;52.604;13.438;2023-12-20T22:26:11;4.40;;;1.33;;
13090;SDS011;6611;52.604;13.438;2023-12-20T22:31:12;5.03;;;1.47;;
13090;SDS011;6611;52.604;13.438;2023-12-20T22:36:16;2.40;;;0.90;;
13090;SDS011;6611;52.604;13.438;2023-12-20T22:41:18;2.07;;;1.10;;
13090;SDS011;6611;52.604;13.438;2023-12-20T22:46:20;3.67;;;1.00;;
13090;SDS011;6611;52.604;13.438;2023-12-20T22:51:23;1.83;;;0.90;;
13090;SDS011;6611;52.604;13.438;2023-12-20T22:56:26;2.63;;;0.93;;
13090;SDS011;6611;52.604;13.438;2023-12-20T23:01:27;4.30;;;1.30;;
13090;SDS011;6611;52.604;13.438;2023-12-20T23:06:31;2.10;;;0.90;;
13090;SDS011;6611;52.604;13.438;2023-12-20T23:11:32;3.17;;;1.07;;
13090;SDS011;6611;52.604;13.438;2023-12-20T23:16:35;2.83;;;1.10;;
13090;SDS011;6611;52.604;13.438;2023-12-20T23:21:39;2.37;;;0.93;;
13090;SDS011;6611;52.604;13.438;2023-12-20T23:26:40;3.47;;;1.10;;
13090;SDS011;6611;52.604;13.438;2023-12-20T23:31:42;2.70;;;0.93;;
13090;SDS011;6611;52.604;13.438;2023-12-20T23:36:45;1.90;;;1.00;;
13090;SDS011;6611;52.604;13.438;2023-12-20T23:41:47;2.03;;;1.33;;
13090;SDS011;6611;52.604;13.438;2023-12-20T23:46:49;3.57;;;1.53;;
13090;SDS011;6611;52.604;13.438;2023-12-20T23:51:52;2.33;;;1.33;;
13090;SDS011;6611;52.604;13.438;2023-12-20T23:56:54;2.90;;;1.30;;
